Metar z pełnej godziny Komunikat METAR ze strony awiacja.imgw.pl Metar G00 EPZG METAR EPZG 271500Z 10006KT 070V130 2400 BR NSC 01/01 Q0994 =